sensor_id;sensor_type;location;lat;lon;timestamp;temperature;humidity
1702;DHT22;848;48.354;10.064;2023-06-26T00:02:15;16.00;99.90
1702;DHT22;848;48.354;10.064;2023-06-26T00:04:42;16.00;99.90
1702;DHT22;848;48.354;10.064;2023-06-26T00:07:09;16.00;99.90
1702;DHT22;848;48.354;10.064;2023-06-26T00:09:37;15.90;99.90
1702;DHT22;848;48.354;10.064;2023-06-26T00:12:04;15.90;99.90
1702;DHT22;848;48.354;10.064;2023-06-26T00:14:31;15.90;99.90
1702;DHT22;848;48.354;10.064;2023-06-26T00:17:00;15.90;99.90
1702;DHT22;848;48.354;10.064;2023-06-26T00:19:26;15.80;99.90
1702;DHT22;848;48.354;10.064;2023-06-26T00:21:53;15.80;99.90
1702;DHT22;848;48.354;10.064;2023-06-26T00:24:20;15.80;99.90
1702;DHT22;848;48.354;10.064;2023-06-26T00:26:47;15.80;99.90
1702;DHT22;848;48.354;10.064;2023-06-26T00:29:15;15.80;99.90
1702;DHT22;848;48.354;10.064;2023-06-26T00:31:42;15.70;99.90
1702;DHT22;848;48.354;10.064;2023-06-26T00:34:10;15.70;99.90
1702;DHT22;848;48.354;10.064;2023-06-26T00:36:37;15.70;99.90
1702;DHT22;848;48.354;10.064;2023-06-26T00:39:04;15.60;99.90
1702;DHT22;848;48.354;10.064;2023-06-26T00:41:31;15.60;99.90
1702;DHT22;848;48.354;10.064;2023-06-26T00:43:58;15.50;99.90
1702;DHT22;848;48.354;10.064;2023-06-26T00:46:25;15.50;99.90
1702;DHT22;848;48.354;10.064;2023-06-26T00:48:52;15.50;99.90
1702;DHT22;848;48.354;10.064;2023-06-26T00:51:22;15.60;99.90
1702;DHT22;848;48.354;10.064;2023-06-26T00:53:49;15.60;99.90
1702;DHT22;848;48.354;10.064;2023-06-26T00:56:17;15.60;99.90
1702;DHT22;848;48.354;10.064;2023-06-26T00:58:45;15.60;99.90
1702;DHT22;848;48.354;10.064;2023-06-26T01:01:12;15.60;99.90
1702;DHT22;848;48.354;10.064;2023-06-26T01:03:43;15.50;99.90
1702;DHT22;848;48.354;10.064;2023-06-26T01:06:13;15.50;99.90
1702;DHT22;848;48.354;10.064;2023-06-26T01:08:42;15.50;99.90
1702;DHT22;848;48.354;10.064;2023-06-26T01:11:10;15.40;99.90
1702;DHT22;848;48.354;10.064;2023-06-26T01:13:38;15.40;99.90
1702;DHT22;848;48.354;10.064;2023-06-26T01:16:06;15.40;99.90
1702;DHT22;848;48.354;10.064;2023-06-26T01:18:34;15.40;99.90
1702;DHT22;848;48.354;10.064;2023-06-26T01:21:02;15.30;99.90
1702;DHT22;848;48.354;10.064;2023-06-26T01:23:35;15.20;99.90
1702;DHT22;848;48.354;10.064;2023-06-26T01:26:16;15.20;99.90
1702;DHT22;848;48.354;10.064;2023-06-26T01:28:44;15.20;99.90
1702;DHT22;848;48.354;10.064;2023-06-26T01:31:12;15.20;99.90
1702;DHT22;848;48.354;10.064;2023-06-26T01:33:41;15.20;99.90
1702;DHT22;848;48.354;10.064;2023-06-26T01:36:08;15.20;99.90
1702;DHT22;848;48.354;10.064;2023-06-26T01:38:35;15.20;99.90
1702;DHT22;848;48.354;10.064;2023-06-26T01:41:03;15.30;99.90
1702;DHT22;848;48.354;10.064;2023-06-26T01:43:38;15.20;99.90
1702;DHT22;848;48.354;10.064;2023-06-26T01:46:11;15.20;99.90
1702;DHT22;848;48.354;10.064;2023-06-26T01:48:49;15.20;99.90
1702;DHT22;848;48.354;10.064;2023-06-26T01:51:18;15.20;99.90
1702;DHT22;848;48.354;10.064;2023-06-26T01:53:50;15.20;99.90
1702;DHT22;848;48.354;10.064;2023-06-26T01:56:20;15.20;99.90
1702;DHT22;848;48.354;10.064;2023-06-26T01:58:51;15.10;99.90
1702;DHT22;848;48.354;10.064;2023-06-26T02:01:21;15.00;99.90
1702;DHT22;848;48.354;10.064;2023-06-26T02:03:48;15.10;99.90
1702;DHT22;848;48.354;10.064;2023-06-26T02:06:15;15.00;99.90
1702;DHT22;848;48.354;10.064;2023-06-26T02:08:42;15.00;99.90
1702;DHT22;848;48.354;10.064;2023-06-26T02:11:08;15.00;99.90
1702;DHT22;848;48.354;10.064;2023-06-26T02:13:35;15.00;99.90
1702;DHT22;848;48.354;10.064;2023-06-26T02:16:04;15.00;99.90
1702;DHT22;848;48.354;10.064;2023-06-26T02:18:31;15.00;99.90
1702;DHT22;848;48.354;10.064;2023-06-26T02:20:57;15.00;99.90
1702;DHT22;848;48.354;10.064;2023-06-26T02:23:25;15.00;99.90
1702;DHT22;848;48.354;10.064;2023-06-26T02:25:52;14.90;99.90
1702;DHT22;848;48.354;10.064;2023-06-26T02:28:19;14.90;99.90
1702;DHT22;848;48.354;10.064;2023-06-26T02:30:45;14.90;99.90
1702;DHT22;848;48.354;10.064;2023-06-26T02:33:14;14.90;99.90
1702;DHT22;848;48.354;10.064;2023-06-26T02:35:40;14.80;99.90
1702;DHT22;848;48.354;10.064;2023-06-26T02:38:08;14.80;99.90
1702;DHT22;848;48.354;10.064;2023-06-26T02:40:35;14.80;99.90
1702;DHT22;848;48.354;10.064;2023-06-26T02:43:02;14.70;99.90
1702;DHT22;848;48.354;10.064;2023-06-26T02:45:29;14.70;99.90
1702;DHT22;848;48.354;10.064;2023-06-26T02:47:55;14.70;99.90
1702;DHT22;848;48.354;10.064;2023-06-26T02:50:24;14.70;99.90
1702;DHT22;848;48.354;10.064;2023-06-26T02:52:50;14.70;99.90
1702;DHT22;848;48.354;10.064;2023-06-26T02:55:18;14.70;99.90
1702;DHT22;848;48.354;10.064;2023-06-26T02:57:45;14.70;99.90
1702;DHT22;848;48.354;10.064;2023-06-26T03:00:13;14.70;99.90
1702;DHT22;848;48.354;10.064;2023-06-26T03:02:40;14.70;99.90
1702;DHT22;848;48.354;10.064;2023-06-26T03:05:07;14.70;99.90
1702;DHT22;848;48.354;10.064;2023-06-26T03:07:36;14.60;99.90
1702;DHT22;848;48.354;10.064;2023-06-26T03:10:03;14.70;99.90
1702;DHT22;848;48.354;10.064;2023-06-26T03:12:31;14.70;99.90
1702;DHT22;848;48.354;10.064;2023-06-26T03:14:57;14.60;99.90
1702;DHT22;848;48.354;10.064;2023-06-26T03:17:24;14.60;99.90
1702;DHT22;848;48.354;10.064;2023-06-26T03:19:51;14.60;99.90
1702;DHT22;848;48.354;10.064;2023-06-26T03:22:18;14.60;99.90
1702;DHT22;848;48.354;10.064;2023-06-26T03:24:46;14.60;99.90
1702;DHT22;848;48.354;10.064;2023-06-26T03:27:13;14.60;99.90
1702;DHT22;848;48.354;10.064;2023-06-26T03:29:40;14.60;99.90
1702;DHT22;848;48.354;10.064;2023-06-26T03:32:07;14.50;99.90
1702;DHT22;848;48.354;10.064;2023-06-26T03:34:34;14.60;99.90
1702;DHT22;848;48.354;10.064;2023-06-26T03:37:01;14.50;99.90
1702;DHT22;848;48.354;10.064;2023-06-26T03:39:28;14.60;99.90
1702;DHT22;848;48.354;10.064;2023-06-26T03:41:56;14.60;99.90
1702;DHT22;848;48.354;10.064;2023-06-26T03:44:26;14.60;99.90
1702;DHT22;848;48.354;10.064;2023-06-26T03:46:53;14.60;99.90
1702;DHT22;848;48.354;10.064;2023-06-26T03:49:20;14.60;99.90
1702;DHT22;848;48.354;10.064;2023-06-26T03:51:47;14.60;99.90
1702;DHT22;848;48.354;10.064;2023-06-26T03:54:13;14.60;99.90
1702;DHT22;848;48.354;10.064;2023-06-26T03:56:40;14.60;99.90
1702;DHT22;848;48.354;10.064;2023-06-26T03:59:09;14.50;99.90
1702;DHT22;848;48.354;10.064;2023-06-26T04:01:36;14.50;99.90
1702;DHT22;848;48.354;10.064;2023-06-26T04:04:04;14.50;99.90
1702;DHT22;848;48.354;10.064;2023-06-26T04:06:31;14.50;99.90
1702;DHT22;848;48.354;10.064;2023-06-26T04:08:58;14.60;99.90
1702;DHT22;848;48.354;10.064;2023-06-26T04:11:25;14.60;99.90
1702;DHT22;848;48.354;10.064;2023-06-26T04:13:52;14.70;99.90
1702;DHT22;848;48.354;10.064;2023-06-26T04:16:21;14.70;99.90
1702;DHT22;848;48.354;10.064;2023-06-26T04:18:50;14.70;99.90
1702;DHT22;848;48.354;10.064;2023-06-26T04:21:17;14.70;99.90
1702;DHT22;848;48.354;10.064;2023-06-26T04:23:45;14.80;99.90
1702;DHT22;848;48.354;10.064;2023-06-26T04:26:13;14.80;99.90
1702;DHT22;848;48.354;10.064;2023-06-26T04:28:40;14.90;99.90
1702;DHT22;848;48.354;10.064;2023-06-26T04:31:08;15.00;99.90
1702;DHT22;848;48.354;10.064;2023-06-26T04:33:37;15.20;99.90
1702;DHT22;848;48.354;10.064;2023-06-26T04:36:04;15.30;99.90
1702;DHT22;848;48.354;10.064;2023-06-26T04:38:32;15.50;99.90
1702;DHT22;848;48.354;10.064;2023-06-26T04:40:59;15.60;99.90
1702;DHT22;848;48.354;10.064;2023-06-26T04:43:26;15.70;99.90
1702;DHT22;848;48.354;10.064;2023-06-26T04:45:53;15.90;99.90
1702;DHT22;848;48.354;10.064;2023-06-26T04:48:20;16.00;99.90
1702;DHT22;848;48.354;10.064;2023-06-26T04:50:48;16.10;99.90
1702;DHT22;848;48.354;10.064;2023-06-26T04:53:19;16.20;99.90
1702;DHT22;848;48.354;10.064;2023-06-26T04:55:47;16.30;99.90
1702;DHT22;848;48.354;10.064;2023-06-26T04:58:14;16.40;99.90
1702;DHT22;848;48.354;10.064;2023-06-26T05:00:41;16.50;99.90
1702;DHT22;848;48.354;10.064;2023-06-26T05:03:09;16.50;99.90
1702;DHT22;848;48.354;10.064;2023-06-26T05:05:36;16.60;99.90
1702;DHT22;848;48.354;10.064;2023-06-26T05:08:15;16.70;99.90
1702;DHT22;848;48.354;10.064;2023-06-26T05:10:42;16.80;99.90
1702;DHT22;848;48.354;10.064;2023-06-26T05:13:09;16.80;99.90
1702;DHT22;848;48.354;10.064;2023-06-26T05:15:36;16.90;99.90
1702;DHT22;848;48.354;10.064;2023-06-26T05:18:03;17.00;99.90
1702;DHT22;848;48.354;10.064;2023-06-26T05:20:31;17.10;99.90
1702;DHT22;848;48.354;10.064;2023-06-26T05:22:58;17.10;99.90
1702;DHT22;848;48.354;10.064;2023-06-26T05:25:26;17.20;99.90
1702;DHT22;848;48.354;10.064;2023-06-26T05:27:55;17.30;99.90
1702;DHT22;848;48.354;10.064;2023-06-26T05:30:23;17.40;99.90
1702;DHT22;848;48.354;10.064;2023-06-26T05:32:52;17.50;99.90
1702;DHT22;848;48.354;10.064;2023-06-26T05:35:20;17.60;99.90
1702;DHT22;848;48.354;10.064;2023-06-26T05:37:48;17.70;99.90
1702;DHT22;848;48.354;10.064;2023-06-26T05:40:16;17.80;99.90
1702;DHT22;848;48.354;10.064;2023-06-26T05:42:45;17.90;99.90
1702;DHT22;848;48.354;10.064;2023-06-26T05:45:12;18.00;99.90
1702;DHT22;848;48.354;10.064;2023-06-26T05:47:42;18.10;99.90
1702;DHT22;848;48.354;10.064;2023-06-26T05:50:18;18.30;99.90
1702;DHT22;848;48.354;10.064;2023-06-26T05:52:46;18.40;99.90
1702;DHT22;848;48.354;10.064;2023-06-26T05:55:14;18.50;99.90
1702;DHT22;848;48.354;10.064;2023-06-26T05:57:41;18.60;99.90
1702;DHT22;848;48.354;10.064;2023-06-26T06:00:11;18.80;99.90
1702;DHT22;848;48.354;10.064;2023-06-26T06:02:38;18.90;99.90
1702;DHT22;848;48.354;10.064;2023-06-26T06:05:07;19.00;99.90
1702;DHT22;848;48.354;10.064;2023-06-26T06:07:35;19.10;99.90
1702;DHT22;848;48.354;10.064;2023-06-26T06:10:03;19.20;99.90
1702;DHT22;848;48.354;10.064;2023-06-26T06:12:30;19.40;99.90
1702;DHT22;848;48.354;10.064;2023-06-26T06:14:57;19.50;99.90
1702;DHT22;848;48.354;10.064;2023-06-26T06:17:25;19.60;99.90
1702;DHT22;848;48.354;10.064;2023-06-26T06:19:52;19.70;99.90
1702;DHT22;848;48.354;10.064;2023-06-26T06:22:19;19.80;99.90
1702;DHT22;848;48.354;10.064;2023-06-26T06:24:50;19.90;99.90
1702;DHT22;848;48.354;10.064;2023-06-26T06:27:17;20.00;99.90
1702;DHT22;848;48.354;10.064;2023-06-26T06:29:44;20.20;99.90
1702;DHT22;848;48.354;10.064;2023-06-26T06:32:11;20.30;99.90
1702;DHT22;848;48.354;10.064;2023-06-26T06:34:39;20.40;99.90
1702;DHT22;848;48.354;10.064;2023-06-26T06:37:06;20.50;99.90
1702;DHT22;848;48.354;10.064;2023-06-26T06:39:35;20.70;99.90
1702;DHT22;848;48.354;10.064;2023-06-26T06:42:02;20.80;99.90
1702;DHT22;848;48.354;10.064;2023-06-26T06:44:29;21.00;99.90
1702;DHT22;848;48.354;10.064;2023-06-26T06:46:57;21.10;99.90
1702;DHT22;848;48.354;10.064;2023-06-26T06:49:23;21.20;99.90
1702;DHT22;848;48.354;10.064;2023-06-26T06:51:52;21.30;99.90
1702;DHT22;848;48.354;10.064;2023-06-26T06:54:19;21.50;99.90
1702;DHT22;848;48.354;10.064;2023-06-26T06:56:46;21.60;99.90
1702;DHT22;848;48.354;10.064;2023-06-26T06:59:13;21.70;99.90
1702;DHT22;848;48.354;10.064;2023-06-26T07:01:40;21.80;99.90
1702;DHT22;848;48.354;10.064;2023-06-26T07:04:07;21.90;99.90
1702;DHT22;848;48.354;10.064;2023-06-26T07:06:34;22.10;99.90
1702;DHT22;848;48.354;10.064;2023-06-26T07:09:02;22.10;99.90
1702;DHT22;848;48.354;10.064;2023-06-26T07:11:29;22.30;99.90
1702;DHT22;848;48.354;10.064;2023-06-26T07:13:56;22.50;99.90
1702;DHT22;848;48.354;10.064;2023-06-26T07:16:23;22.70;99.90
1702;DHT22;848;48.354;10.064;2023-06-26T07:18:50;22.90;99.90
1702;DHT22;848;48.354;10.064;2023-06-26T07:21:17;23.10;99.90
1702;DHT22;848;48.354;10.064;2023-06-26T07:23:44;23.30;99.90
1702;DHT22;848;48.354;10.064;2023-06-26T07:26:14;23.60;99.90
1702;DHT22;848;48.354;10.064;2023-06-26T07:28:41;23.90;99.90
1702;DHT22;848;48.354;10.064;2023-06-26T07:31:08;24.40;99.90
1702;DHT22;848;48.354;10.064;2023-06-26T07:33:35;24.80;99.90
1702;DHT22;848;48.354;10.064;2023-06-26T07:36:02;25.10;99.90
1702;DHT22;848;48.354;10.064;2023-06-26T07:38:29;25.30;99.90
1702;DHT22;848;48.354;10.064;2023-06-26T07:40:56;25.40;99.90
1702;DHT22;848;48.354;10.064;2023-06-26T07:43:24;25.70;99.90
1702;DHT22;848;48.354;10.064;2023-06-26T07:45:51;26.00;99.90
1702;DHT22;848;48.354;10.064;2023-06-26T07:48:19;26.50;99.90
1702;DHT22;848;48.354;10.064;2023-06-26T07:50:45;26.80;99.90
1702;DHT22;848;48.354;10.064;2023-06-26T07:53:12;27.20;99.90
1702;DHT22;848;48.354;10.064;2023-06-26T07:55:39;27.20;99.90
1702;DHT22;848;48.354;10.064;2023-06-26T07:58:07;27.10;99.90
1702;DHT22;848;48.354;10.064;2023-06-26T08:00:35;27.10;99.90
1702;DHT22;848;48.354;10.064;2023-06-26T08:03:03;27.00;99.90
1702;DHT22;848;48.354;10.064;2023-06-26T08:05:30;27.00;99.90
1702;DHT22;848;48.354;10.064;2023-06-26T08:07:57;27.20;99.90
1702;DHT22;848;48.354;10.064;2023-06-26T08:10:23;27.40;99.90
1702;DHT22;848;48.354;10.064;2023-06-26T08:12:50;27.50;99.90
1702;DHT22;848;48.354;10.064;2023-06-26T08:15:18;27.50;99.90
1702;DHT22;848;48.354;10.064;2023-06-26T08:17:46;27.80;99.90
1702;DHT22;848;48.354;10.064;2023-06-26T08:20:13;27.90;99.90
1702;DHT22;848;48.354;10.064;2023-06-26T08:22:40;28.00;99.90
1702;DHT22;848;48.354;10.064;2023-06-26T08:25:08;28.30;99.90
1702;DHT22;848;48.354;10.064;2023-06-26T08:27:34;28.40;99.90
1702;DHT22;848;48.354;10.064;2023-06-26T08:30:01;28.80;99.90
1702;DHT22;848;48.354;10.064;2023-06-26T08:32:30;29.00;99.90
1702;DHT22;848;48.354;10.064;2023-06-26T08:34:59;29.00;99.90
1702;DHT22;848;48.354;10.064;2023-06-26T08:37:26;28.80;99.90
1702;DHT22;848;48.354;10.064;2023-06-26T08:39:53;28.90;99.90
1702;DHT22;848;48.354;10.064;2023-06-26T08:42:19;29.00;99.90
1702;DHT22;848;48.354;10.064;2023-06-26T08:44:46;29.30;99.90
1702;DHT22;848;48.354;10.064;2023-06-26T08:47:13;29.40;99.90
1702;DHT22;848;48.354;10.064;2023-06-26T08:49:47;29.60;99.90
1702;DHT22;848;48.354;10.064;2023-06-26T08:52:19;29.70;99.90
1702;DHT22;848;48.354;10.064;2023-06-26T08:54:54;29.70;99.90
1702;DHT22;848;48.354;10.064;2023-06-26T08:57:23;29.90;99.90
1702;DHT22;848;48.354;10.064;2023-06-26T08:59:52;29.90;99.90
1702;DHT22;848;48.354;10.064;2023-06-26T09:02:19;29.50;99.90
1702;DHT22;848;48.354;10.064;2023-06-26T09:04:47;29.70;99.90
1702;DHT22;848;48.354;10.064;2023-06-26T09:07:14;29.80;99.90
1702;DHT22;848;48.354;10.064;2023-06-26T09:09:43;30.00;99.90
1702;DHT22;848;48.354;10.064;2023-06-26T09:12:10;30.10;99.90
1702;DHT22;848;48.354;10.064;2023-06-26T09:14:37;30.00;99.90
1702;DHT22;848;48.354;10.064;2023-06-26T09:17:04;29.90;99.90
1702;DHT22;848;48.354;10.064;2023-06-26T09:19:31;29.60;99.90
1702;DHT22;848;48.354;10.064;2023-06-26T09:21:58;29.60;99.90
1702;DHT22;848;48.354;10.064;2023-06-26T09:24:25;29.80;99.90
1702;DHT22;848;48.354;10.064;2023-06-26T09:26:54;29.80;99.90
1702;DHT22;848;48.354;10.064;2023-06-26T09:29:21;30.20;99.90
1702;DHT22;848;48.354;10.064;2023-06-26T09:31:47;30.50;99.90
1702;DHT22;848;48.354;10.064;2023-06-26T09:34:14;30.50;99.90
1702;DHT22;848;48.354;10.064;2023-06-26T09:36:41;30.40;99.90
1702;DHT22;848;48.354;10.064;2023-06-26T09:39:12;30.50;99.90
1702;DHT22;848;48.354;10.064;2023-06-26T09:41:41;30.40;99.90
1702;DHT22;848;48.354;10.064;2023-06-26T09:44:11;30.30;99.90
1702;DHT22;848;48.354;10.064;2023-06-26T09:46:40;30.30;99.90
1702;DHT22;848;48.354;10.064;2023-06-26T09:49:08;30.40;99.90
1702;DHT22;848;48.354;10.064;2023-06-26T09:51:37;30.80;99.90
1702;DHT22;848;48.354;10.064;2023-06-26T09:54:05;30.90;99.90
1702;DHT22;848;48.354;10.064;2023-06-26T09:56:33;30.80;99.90
1702;DHT22;848;48.354;10.064;2023-06-26T09:59:01;31.00;99.90
1702;DHT22;848;48.354;10.064;2023-06-26T10:01:31;31.50;99.90
1702;DHT22;848;48.354;10.064;2023-06-26T10:03:58;31.70;99.90
1702;DHT22;848;48.354;10.064;2023-06-26T10:06:28;31.90;99.90
1702;DHT22;848;48.354;10.064;2023-06-26T10:08:56;31.50;99.90
1702;DHT22;848;48.354;10.064;2023-06-26T10:11:27;31.50;99.90
1702;DHT22;848;48.354;10.064;2023-06-26T10:13:57;31.40;99.90
1702;DHT22;848;48.354;10.064;2023-06-26T10:16:26;31.00;99.90
1702;DHT22;848;48.354;10.064;2023-06-26T10:19:01;30.30;99.90
1702;DHT22;848;48.354;10.064;2023-06-26T10:21:29;29.80;99.90
1702;DHT22;848;48.354;10.064;2023-06-26T10:23:59;29.70;99.90
1702;DHT22;848;48.354;10.064;2023-06-26T10:26:26;29.60;99.90
1702;DHT22;848;48.354;10.064;2023-06-26T10:28:55;29.80;99.90
1702;DHT22;848;48.354;10.064;2023-06-26T10:31:25;29.90;99.50
1702;DHT22;848;48.354;10.064;2023-06-26T10:33:53;29.90;99.00
1702;DHT22;848;48.354;10.064;2023-06-26T10:36:29;30.00;97.50
1702;DHT22;848;48.354;10.064;2023-06-26T10:38:58;29.70;97.40
1702;DHT22;848;48.354;10.064;2023-06-26T10:41:36;29.60;98.60
1702;DHT22;848;48.354;10.064;2023-06-26T10:44:08;29.80;97.60
1702;DHT22;848;48.354;10.064;2023-06-26T10:46:49;29.80;96.40
1702;DHT22;848;48.354;10.064;2023-06-26T10:49:18;29.70;96.30
1702;DHT22;848;48.354;10.064;2023-06-26T10:51:50;29.80;97.10
1702;DHT22;848;48.354;10.064;2023-06-26T10:54:18;29.70;96.10
1702;DHT22;848;48.354;10.064;2023-06-26T10:56:47;29.60;96.70
1702;DHT22;848;48.354;10.064;2023-06-26T10:59:16;29.60;97.10
1702;DHT22;848;48.354;10.064;2023-06-26T11:01:43;29.60;95.90
1702;DHT22;848;48.354;10.064;2023-06-26T11:04:12;29.60;96.20
1702;DHT22;848;48.354;10.064;2023-06-26T11:06:40;29.70;96.00
1702;DHT22;848;48.354;10.064;2023-06-26T11:09:10;29.90;96.00
1702;DHT22;848;48.354;10.064;2023-06-26T11:11:59;30.00;95.70
1702;DHT22;848;48.354;10.064;2023-06-26T11:14:31;29.80;95.50
1702;DHT22;848;48.354;10.064;2023-06-26T11:16:58;29.80;95.80
1702;DHT22;848;48.354;10.064;2023-06-26T11:19:27;29.90;94.90
1702;DHT22;848;48.354;10.064;2023-06-26T11:21:59;29.70;95.00
1702;DHT22;848;48.354;10.064;2023-06-26T11:24:28;29.50;94.70
1702;DHT22;848;48.354;10.064;2023-06-26T11:27:00;29.40;95.10
1702;DHT22;848;48.354;10.064;2023-06-26T11:29:29;29.40;95.60
1702;DHT22;848;48.354;10.064;2023-06-26T11:32:04;29.50;96.40
1702;DHT22;848;48.354;10.064;2023-06-26T11:34:33;29.50;95.50
1702;DHT22;848;48.354;10.064;2023-06-26T11:37:00;29.40;95.40
1702;DHT22;848;48.354;10.064;2023-06-26T11:39:32;29.30;95.50
1702;DHT22;848;48.354;10.064;2023-06-26T11:41:59;29.30;95.60
1702;DHT22;848;48.354;10.064;2023-06-26T11:44:30;29.40;95.90
1702;DHT22;848;48.354;10.064;2023-06-26T11:46:57;29.40;95.40
1702;DHT22;848;48.354;10.064;2023-06-26T11:49:24;29.30;95.10
1702;DHT22;848;48.354;10.064;2023-06-26T11:51:52;29.50;95.40
1702;DHT22;848;48.354;10.064;2023-06-26T11:54:25;29.50;95.30
1702;DHT22;848;48.354;10.064;2023-06-26T11:56:55;29.50;97.10
1702;DHT22;848;48.354;10.064;2023-06-26T11:59:23;29.60;95.10
1702;DHT22;848;48.354;10.064;2023-06-26T12:01:51;29.60;96.40
1702;DHT22;848;48.354;10.064;2023-06-26T12:04:18;29.50;95.60
1702;DHT22;848;48.354;10.064;2023-06-26T12:06:48;29.40;94.20
1702;DHT22;848;48.354;10.064;2023-06-26T12:09:17;29.40;94.40
1702;DHT22;848;48.354;10.064;2023-06-26T12:11:47;29.40;94.50
1702;DHT22;848;48.354;10.064;2023-06-26T12:14:17;29.50;95.70
1702;DHT22;848;48.354;10.064;2023-06-26T12:16:44;29.60;93.80
1702;DHT22;848;48.354;10.064;2023-06-26T12:19:11;29.50;94.20
1702;DHT22;848;48.354;10.064;2023-06-26T12:21:47;29.50;94.60
1702;DHT22;848;48.354;10.064;2023-06-26T12:24:19;29.50;95.00
1702;DHT22;848;48.354;10.064;2023-06-26T12:26:50;29.60;96.40
1702;DHT22;848;48.354;10.064;2023-06-26T12:29:21;29.70;96.80
1702;DHT22;848;48.354;10.064;2023-06-26T12:31:52;29.80;94.60
1702;DHT22;848;48.354;10.064;2023-06-26T12:34:20;30.00;94.30
1702;DHT22;848;48.354;10.064;2023-06-26T12:36:49;30.10;94.30
1702;DHT22;848;48.354;10.064;2023-06-26T12:39:17;30.10;94.30
1702;DHT22;848;48.354;10.064;2023-06-26T12:41:48;30.10;94.70
1702;DHT22;848;48.354;10.064;2023-06-26T12:44:26;30.20;95.00
1702;DHT22;848;48.354;10.064;2023-06-26T12:46:55;30.30;95.20
1702;DHT22;848;48.354;10.064;2023-06-26T12:49:29;30.40;95.00
1702;DHT22;848;48.354;10.064;2023-06-26T12:51:57;30.30;94.80
1702;DHT22;848;48.354;10.064;2023-06-26T12:54:24;30.10;94.40
1702;DHT22;848;48.354;10.064;2023-06-26T12:56:51;30.10;95.30
1702;DHT22;848;48.354;10.064;2023-06-26T12:59:19;30.00;95.00
1702;DHT22;848;48.354;10.064;2023-06-26T13:01:47;29.90;96.80
1702;DHT22;848;48.354;10.064;2023-06-26T13:04:14;29.70;97.60
1702;DHT22;848;48.354;10.064;2023-06-26T13:06:41;29.70;97.80
1702;DHT22;848;48.354;10.064;2023-06-26T13:09:08;29.60;96.90
1702;DHT22;848;48.354;10.064;2023-06-26T13:11:36;29.50;96.80
1702;DHT22;848;48.354;10.064;2023-06-26T13:14:04;29.40;97.30
1702;DHT22;848;48.354;10.064;2023-06-26T13:16:30;29.30;97.80
1702;DHT22;848;48.354;10.064;2023-06-26T13:19:02;29.20;97.30
1702;DHT22;848;48.354;10.064;2023-06-26T13:21:29;29.10;97.70
1702;DHT22;848;48.354;10.064;2023-06-26T13:23:56;29.10;98.20
1702;DHT22;848;48.354;10.064;2023-06-26T13:26:25;29.20;98.00
1702;DHT22;848;48.354;10.064;2023-06-26T13:28:54;29.00;98.10
1702;DHT22;848;48.354;10.064;2023-06-26T13:31:21;29.00;97.90
1702;DHT22;848;48.354;10.064;2023-06-26T13:33:48;29.00;98.50
1702;DHT22;848;48.354;10.064;2023-06-26T13:36:19;29.10;98.70
1702;DHT22;848;48.354;10.064;2023-06-26T13:38:46;29.20;98.10
1702;DHT22;848;48.354;10.064;2023-06-26T13:41:15;29.10;98.80
1702;DHT22;848;48.354;10.064;2023-06-26T13:43:42;29.10;98.40
1702;DHT22;848;48.354;10.064;2023-06-26T13:46:09;29.20;98.60
1702;DHT22;848;48.354;10.064;2023-06-26T13:48:37;29.20;98.60
1702;DHT22;848;48.354;10.064;2023-06-26T13:51:04;29.30;98.60
1702;DHT22;848;48.354;10.064;2023-06-26T13:53:32;29.30;98.60
1702;DHT22;848;48.354;10.064;2023-06-26T13:55:59;29.20;99.10
1702;DHT22;848;48.354;10.064;2023-06-26T13:58:27;29.10;99.10
1702;DHT22;848;48.354;10.064;2023-06-26T14:00:57;29.00;99.40
1702;DHT22;848;48.354;10.064;2023-06-26T14:03:26;28.90;99.60
1702;DHT22;848;48.354;10.064;2023-06-26T14:05:53;28.90;99.50
1702;DHT22;848;48.354;10.064;2023-06-26T14:08:21;28.90;99.50
1702;DHT22;848;48.354;10.064;2023-06-26T14:10:49;28.90;98.90
1702;DHT22;848;48.354;10.064;2023-06-26T14:13:16;28.90;99.10
1702;DHT22;848;48.354;10.064;2023-06-26T14:15:43;28.90;98.60
1702;DHT22;848;48.354;10.064;2023-06-26T14:18:10;29.10;99.30
1702;DHT22;848;48.354;10.064;2023-06-26T14:20:37;29.20;98.60
1702;DHT22;848;48.354;10.064;2023-06-26T14:23:05;29.30;98.40
1702;DHT22;848;48.354;10.064;2023-06-26T14:25:32;29.20;98.40
1702;DHT22;848;48.354;10.064;2023-06-26T14:28:00;29.20;99.10
1702;DHT22;848;48.354;10.064;2023-06-26T14:30:27;29.20;98.90
1702;DHT22;848;48.354;10.064;2023-06-26T14:32:54;29.20;98.50
1702;DHT22;848;48.354;10.064;2023-06-26T14:35:21;29.20;99.00
1702;DHT22;848;48.354;10.064;2023-06-26T14:37:49;29.00;99.90
1702;DHT22;848;48.354;10.064;2023-06-26T14:40:16;28.90;99.90
1702;DHT22;848;48.354;10.064;2023-06-26T14:42:43;28.90;99.90
1702;DHT22;848;48.354;10.064;2023-06-26T14:45:12;28.80;99.90
1702;DHT22;848;48.354;10.064;2023-06-26T14:47:39;28.70;99.90
1702;DHT22;848;48.354;10.064;2023-06-26T14:50:07;28.60;99.90
1702;DHT22;848;48.354;10.064;2023-06-26T14:52:34;28.60;99.90
1702;DHT22;848;48.354;10.064;2023-06-26T14:55:01;28.60;99.90
1702;DHT22;848;48.354;10.064;2023-06-26T14:57:28;28.70;99.90
1702;DHT22;848;48.354;10.064;2023-06-26T14:59:55;28.70;99.90
1702;DHT22;848;48.354;10.064;2023-06-26T15:02:24;28.70;99.90
1702;DHT22;848;48.354;10.064;2023-06-26T15:04:51;28.60;99.90
1702;DHT22;848;48.354;10.064;2023-06-26T15:07:17;28.60;99.90
1702;DHT22;848;48.354;10.064;2023-06-26T15:09:44;28.50;99.90
1702;DHT22;848;48.354;10.064;2023-06-26T15:12:11;28.60;99.90
1702;DHT22;848;48.354;10.064;2023-06-26T15:14:38;28.60;99.90
1702;DHT22;848;48.354;10.064;2023-06-26T15:17:05;28.50;99.90
1702;DHT22;848;48.354;10.064;2023-06-26T15:19:34;28.40;99.90
1702;DHT22;848;48.354;10.064;2023-06-26T15:22:01;28.40;99.90
1702;DHT22;848;48.354;10.064;2023-06-26T15:24:28;28.30;99.90
1702;DHT22;848;48.354;10.064;2023-06-26T15:26:55;28.30;99.90
1702;DHT22;848;48.354;10.064;2023-06-26T15:29:23;28.30;99.90
1702;DHT22;848;48.354;10.064;2023-06-26T15:31:51;28.30;99.90
1702;DHT22;848;48.354;10.064;2023-06-26T15:34:18;28.20;99.90
1702;DHT22;848;48.354;10.064;2023-06-26T15:36:46;28.10;99.90
1702;DHT22;848;48.354;10.064;2023-06-26T15:39:13;28.00;99.90
1702;DHT22;848;48.354;10.064;2023-06-26T15:41:40;27.90;99.90
1702;DHT22;848;48.354;10.064;2023-06-26T15:44:07;27.80;99.90
1702;DHT22;848;48.354;10.064;2023-06-26T15:46:34;27.70;99.90
1702;DHT22;848;48.354;10.064;2023-06-26T15:49:01;27.70;99.90
1702;DHT22;848;48.354;10.064;2023-06-26T15:51:28;27.70;99.90
1702;DHT22;848;48.354;10.064;2023-06-26T15:53:57;27.90;99.90
1702;DHT22;848;48.354;10.064;2023-06-26T15:56:24;28.10;99.90
1702;DHT22;848;48.354;10.064;2023-06-26T15:58:51;28.30;99.90
1702;DHT22;848;48.354;10.064;2023-06-26T16:01:18;28.40;99.90
1702;DHT22;848;48.354;10.064;2023-06-26T16:03:46;28.40;99.90
1702;DHT22;848;48.354;10.064;2023-06-26T16:06:13;28.50;99.90
1702;DHT22;848;48.354;10.064;2023-06-26T16:08:41;28.50;99.90